Time;durP1;ratioP1;P1;durP2;ratioP2;P2;SDS_P1;SDS_P2;PMS_P1;PMS_P2;Temp;Humidity;BMP_temperature;BMP_pressure;BME280_temperature;BME280_humidity;BME280_pressure;Samples;Min_cycle;Max_cycle;Signal;HPM_P1;HPM_P2
2022/09/14 00:01:46;;;;;;;3.57;2.80;;;;;;;;;;5076252;28;20678;-78
2022/09/14 00:04:14;;;;;;;3.37;3.00;;;;;;;;;;5058783;28;20204;-78
2022/09/14 00:06:40;;;;;;;3.77;3.13;;;;;;;;;;5075206;28;20196;-78
2022/09/14 00:09:07;;;;;;;4.10;3.47;;;;;;;;;;5075091;28;20180;-78
2022/09/14 00:11:34;;;;;;;4.57;3.10;;;;;;;;;;5075135;28;20220;-78
2022/09/14 00:14:00;;;;;;;3.20;2.90;;;;;;;;;;5075294;28;20619;-78
2022/09/14 00:16:28;;;;;;;3.50;3.10;;;;;;;;;;5058556;28;20232;-78
2022/09/14 00:18:56;;;;;;;4.37;3.50;;;;;;;;;;5075085;28;20173;-78
2022/09/14 00:21:23;;;;;;;3.80;3.50;;;;;;;;;;5074792;28;20200;-78
2022/09/14 00:24:11;;;;;;;3.57;3.10;;;;;;;;;;5074705;28;20188;-78
2022/09/14 00:26:37;;;;;;;4.00;3.60;;;;;;;;;;5073714;28;20184;-78
2022/09/14 00:29:04;;;;;;;4.67;3.70;;;;;;;;;;5074789;28;20650;-78
2022/09/14 00:31:31;;;;;;;4.17;3.77;;;;;;;;;;5075928;28;20181;-78
2022/09/14 00:33:57;;;;;;;5.20;3.80;;;;;;;;;;5074896;28;20543;-78
2022/09/14 00:36:25;;;;;;;5.27;3.97;;;;;;;;;;5074641;28;20169;-78
2022/09/14 00:38:51;;;;;;;4.20;3.73;;;;;;;;;;5075644;28;20173;-79
2022/09/14 00:41:19;;;;;;;4.20;3.80;;;;;;;;;;5075917;28;20205;-78
2022/09/14 00:43:51;;;;;;;4.53;4.07;;;;;;;;;;5075028;28;20180;-78
2022/09/14 00:46:17;;;;;;;4.27;3.87;;;;;;;;;;5075690;28;20627;-79
2022/09/14 00:48:43;;;;;;;4.30;3.90;;;;;;;;;;5058377;28;20173;-78
2022/09/14 00:51:09;;;;;;;4.40;3.90;;;;;;;;;;5057859;28;20212;-78
2022/09/14 00:53:35;;;;;;;4.33;3.57;;;;;;;;;;5074970;28;20177;-78
2022/09/14 00:56:02;;;;;;;4.43;3.50;;;;;;;;;;5057936;28;20215;-78
2022/09/14 00:58:28;;;;;;;5.77;3.57;;;;;;;;;;5057733;28;20237;-78
2022/09/14 01:00:54;;;;;;;4.57;4.10;;;;;;;;;;5074007;28;20212;-78
2022/09/14 01:03:20;;;;;;;4.83;3.80;;;;;;;;;;5074346;28;20173;-78
2022/09/14 01:06:06;;;;;;;3.53;3.23;;;;;;;;;;5057662;28;20188;-78
2022/09/14 01:08:32;;;;;;;3.57;3.10;;;;;;;;;;5073453;28;20189;-78
2022/09/14 01:11:05;;;;;;;3.83;3.40;;;;;;;;;;5074123;28;20222;-78
2022/09/14 01:13:49;;;;;;;4.30;3.20;;;;;;;;;;5074021;28;20180;-78
2022/09/14 01:16:36;;;;;;;3.70;3.27;;;;;;;;;;5074260;28;20230;-78
2022/09/14 01:19:05;;;;;;;4.27;3.47;;;;;;;;;;5074197;28;20173;-78
2022/09/14 01:21:33;;;;;;;4.77;3.73;;;;;;;;;;5074064;28;20200;-79
2022/09/14 01:24:20;;;;;;;4.10;3.70;;;;;;;;;;5073583;28;20177;-78
2022/09/14 01:27:00;;;;;;;4.50;4.10;;;;;;;;;;5074056;28;20176;-78
2022/09/14 01:29:40;;;;;;;4.33;3.93;;;;;;;;;;5073468;28;20556;-78
2022/09/14 01:32:25;;;;;;;3.97;3.57;;;;;;;;;;5074037;28;20176;-78
2022/09/14 01:34:54;;;;;;;4.07;3.67;;;;;;;;;;5073551;28;20181;-78
2022/09/14 01:37:23;;;;;;;3.77;3.40;;;;;;;;;;5073727;28;20296;-78
2022/09/14 01:39:54;;;;;;;3.83;3.43;;;;;;;;;;5056842;28;20201;-78
2022/09/14 01:42:22;;;;;;;4.27;3.57;;;;;;;;;;5056653;28;20166;-78
2022/09/14 01:44:51;;;;;;;3.50;3.17;;;;;;;;;;5073298;28;20184;-78
2022/09/14 01:47:27;;;;;;;3.40;3.10;;;;;;;;;;5073079;28;20207;-78
2022/09/14 01:49:57;;;;;;;3.20;2.90;;;;;;;;;;5072978;28;20219;-78
2022/09/14 01:52:25;;;;;;;4.97;3.50;;;;;;;;;;5073160;28;20173;-78
2022/09/14 01:55:01;;;;;;;4.30;3.87;;;;;;;;;;5073254;28;20556;-78
2022/09/14 01:57:27;;;;;;;4.13;3.73;;;;;;;;;;5073032;28;20234;-78
2022/09/14 01:59:56;;;;;;;3.63;3.30;;;;;;;;;;5072359;28;20565;-78
2022/09/14 02:02:25;;;;;;;4.57;3.43;;;;;;;;;;5056229;28;20177;-78
2022/09/14 02:05:01;;;;;;;4.30;3.90;;;;;;;;;;5072990;28;20173;-78
2022/09/14 02:07:27;;;;;;;5.93;5.10;;;;;;;;;;5072732;28;20172;-78
2022/09/14 02:09:54;;;;;;;4.63;4.13;;;;;;;;;;5055967;28;20223;-78
2022/09/14 02:12:21;;;;;;;6.50;5.03;;;;;;;;;;5072205;28;20177;-78
2022/09/14 02:14:47;;;;;;;6.03;5.20;;;;;;;;;;5072313;28;20177;-78
2022/09/14 02:17:13;;;;;;;6.27;5.67;;;;;;;;;;5055771;28;20204;-78
2022/09/14 02:20:00;;;;;;;6.17;5.57;;;;;;;;;;5056018;28;20581;-78
2022/09/14 02:22:27;;;;;;;6.13;5.53;;;;;;;;;;5071993;28;20180;-78
2022/09/14 02:25:21;;;;;;;8.27;5.90;;;;;;;;;;5072190;28;20230;-78
2022/09/14 02:27:47;;;;;;;6.17;5.47;;;;;;;;;;5072237;28;20177;-78
2022/09/14 02:30:14;;;;;;;6.20;5.60;;;;;;;;;;5071784;28;20208;-78
2022/09/14 02:32:46;;;;;;;6.77;5.47;;;;;;;;;;5055550;28;20233;-78
2022/09/14 02:35:15;;;;;;;7.23;5.57;;;;;;;;;;5071922;28;20181;-78
2022/09/14 02:37:53;;;;;;;6.40;5.23;;;;;;;;;;5072099;28;20197;-78
2022/09/14 02:40:34;;;;;;;6.03;4.80;;;;;;;;;;5071570;28;20207;-78
2022/09/14 02:43:19;;;;;;;5.60;4.60;;;;;;;;;;5072063;28;20198;-79
2022/09/14 02:46:05;;;;;;;6.33;4.80;;;;;;;;;;5072207;28;20182;-79
2022/09/14 02:48:31;;;;;;;5.60;4.40;;;;;;;;;;5064260;28;20549;-78
2022/09/14 02:51:06;;;;;;;5.27;4.67;;;;;;;;;;5071815;28;20207;-78
2022/09/14 02:53:36;;;;;;;4.70;4.30;;;;;;;;;;5072343;28;20180;-78
2022/09/14 02:56:06;;;;;;;5.43;4.93;;;;;;;;;;5073264;28;20180;-78
2022/09/14 02:58:34;;;;;;;5.10;4.60;;;;;;;;;;5071881;28;20615;-79
2022/09/14 03:01:00;;;;;;;5.33;4.83;;;;;;;;;;5071654;28;20204;-78
2022/09/14 03:03:26;;;;;;;5.63;4.93;;;;;;;;;;5055476;28;20177;-78
2022/09/14 03:05:52;;;;;;;5.50;5.00;;;;;;;;;;5055348;28;20177;-78
2022/09/14 03:08:18;;;;;;;6.13;5.50;;;;;;;;;;5055132;28;20188;-78
2022/09/14 03:10:44;;;;;;;6.33;5.40;;;;;;;;;;5054927;28;20196;-78
2022/09/14 03:13:10;;;;;;;5.67;5.17;;;;;;;;;;5073015;28;20169;-78
2022/09/14 03:15:36;;;;;;;5.40;4.90;;;;;;;;;;5055484;28;20267;-78
2022/09/14 03:18:02;;;;;;;5.80;5.20;;;;;;;;;;5055365;28;20262;-78
2022/09/14 03:20:31;;;;;;;5.90;5.30;;;;;;;;;;5055150;28;20197;-78
2022/09/14 03:22:58;;;;;;;6.03;5.43;;;;;;;;;;5071712;28;20177;-78
2022/09/14 03:28:27;;;;;;;5.30;4.77;;;;;;;;;;5072707;28;20668;-78
2022/09/14 03:30:54;;;;;;;5.90;4.83;;;;;;;;;;5054981;28;20193;-78
2022/09/14 03:33:20;;;;;;;7.57;5.67;;;;;;;;;;5054803;28;20188;-78
2022/09/14 03:35:46;;;;;;;5.40;4.90;;;;;;;;;;5054459;28;20170;-78
2022/09/14 03:38:11;;;;;;;5.03;4.53;;;;;;;;;;5054531;28;20254;-78
2022/09/14 03:40:38;;;;;;;6.93;5.30;;;;;;;;;;5054614;28;20618;-78
2022/09/14 03:43:04;;;;;;;6.37;5.00;;;;;;;;;;5071254;28;20181;-78
2022/09/14 03:45:30;;;;;;;6.50;5.10;;;;;;;;;;5071266;28;20176;-78
2022/09/14 03:47:56;;;;;;;6.33;5.73;;;;;;;;;;5054846;28;20180;-78
2022/09/14 03:50:22;;;;;;;6.20;5.30;;;;;;;;;;5071261;28;20251;-78
2022/09/14 03:52:48;;;;;;;5.60;5.03;;;;;;;;;;5054240;28;20189;-78
2022/09/14 03:55:15;;;;;;;6.70;5.30;;;;;;;;;;5070976;28;20177;-78
2022/09/14 03:57:41;;;;;;;7.93;6.00;;;;;;;;;;5072011;28;20192;-78
2022/09/14 04:00:07;;;;;;;6.90;6.20;;;;;;;;;;5072364;28;20243;-78
2022/09/14 04:02:33;;;;;;;6.20;5.60;;;;;;;;;;5074712;28;20223;-78
2022/09/14 04:04:59;;;;;;;6.97;5.60;;;;;;;;;;5058064;28;20640;-78
2022/09/14 04:07:25;;;;;;;6.53;5.90;;;;;;;;;;5058085;28;20235;-78
2022/09/14 04:09:51;;;;;;;7.07;5.73;;;;;;;;;;5058068;28;20207;-78
2022/09/14 04:12:17;;;;;;;6.80;5.80;;;;;;;;;;5058093;28;20175;-78
2022/09/14 04:14:43;;;;;;;7.27;6.17;;;;;;;;;;5058103;28;20185;-78
2022/09/14 04:17:09;;;;;;;7.00;6.30;;;;;;;;;;5057714;28;20205;-78
2022/09/14 04:19:38;;;;;;;7.57;6.60;;;;;;;;;;5057469;28;20184;-78
2022/09/14 04:22:04;;;;;;;7.23;6.03;;;;;;;;;;5074554;28;20173;-78
2022/09/14 04:27:33;;;;;;;7.03;6.00;;;;;;;;;;5075401;28;20164;-78
2022/09/14 04:29:59;;;;;;;6.27;5.67;;;;;;;;;;5074216;28;20189;-78
2022/09/14 04:32:25;;;;;;;6.53;5.80;;;;;;;;;;5074362;28;20169;-78
2022/09/14 04:34:51;;;;;;;7.33;5.70;;;;;;;;;;5057512;28;20184;-78
2022/09/14 04:37:18;;;;;;;6.97;6.27;;;;;;;;;;5057277;28;20212;-78
2022/09/14 04:39:44;;;;;;;8.53;6.57;;;;;;;;;;5073707;28;20177;-78
2022/09/14 04:42:10;;;;;;;7.07;6.27;;;;;;;;;;5074120;28;20173;-78
2022/09/14 04:44:36;;;;;;;6.90;6.20;;;;;;;;;;5074184;28;20173;-78
2022/09/14 04:47:02;;;;;;;8.10;6.33;;;;;;;;;;5057207;28;20181;-78
2022/09/14 04:49:28;;;;;;;7.03;6.30;;;;;;;;;;5073699;28;20256;-78
2022/09/14 04:51:54;;;;;;;7.80;6.97;;;;;;;;;;5057439;28;20219;-78
2022/09/14 04:54:20;;;;;;;7.30;6.60;;;;;;;;;;5057162;28;20177;-78
2022/09/14 04:56:46;;;;;;;6.77;6.10;;;;;;;;;;5074482;28;20173;-78
2022/09/14 04:59:14;;;;;;;7.10;6.10;;;;;;;;;;5074579;28;20181;-78
2022/09/14 05:01:41;;;;;;;8.33;6.20;;;;;;;;;;5074965;28;20240;-78
2022/09/14 05:04:08;;;;;;;7.10;6.40;;;;;;;;;;5074567;28;20176;-78
2022/09/14 05:06:35;;;;;;;8.17;7.37;;;;;;;;;;5058220;28;20177;-78
2022/09/14 05:09:02;;;;;;;7.80;7.00;;;;;;;;;;5057810;28;20188;-80
2022/09/14 05:11:29;;;;;;;7.50;6.73;;;;;;;;;;5073503;28;20193;-77
2022/09/14 05:13:56;;;;;;;10.87;6.33;;;;;;;;;;5075602;28;20623;-78
2022/09/14 05:16:24;;;;;;;7.23;6.47;;;;;;;;;;5073753;28;20200;-78
2022/09/14 05:18:50;;;;;;;8.43;7.17;;;;;;;;;;5074832;28;20204;-78
2022/09/14 05:21:17;;;;;;;8.23;7.07;;;;;;;;;;5074002;28;20217;-78
2022/09/14 05:23:43;;;;;;;7.10;6.40;;;;;;;;;;5073587;28;20169;-78
2022/09/14 05:26:09;;;;;;;7.50;6.70;;;;;;;;;;5074125;28;20201;-79
2022/09/14 05:28:37;;;;;;;7.97;6.57;;;;;;;;;;5056969;28;20177;-78
2022/09/14 05:31:04;;;;;;;7.33;6.63;;;;;;;;;;5073537;28;20207;-78
2022/09/14 05:33:30;;;;;;;7.57;6.63;;;;;;;;;;5073527;28;20177;-78
2022/09/14 05:36:00;;;;;;;7.50;6.80;;;;;;;;;;5073585;28;20256;-78
2022/09/14 05:38:27;;;;;;;8.43;6.57;;;;;;;;;;5073098;28;20627;-78
2022/09/14 05:40:54;;;;;;;7.43;6.17;;;;;;;;;;5073130;28;20217;-78
2022/09/14 05:43:21;;;;;;;9.07;6.33;;;;;;;;;;5073360;28;20222;-78
2022/09/14 05:45:47;;;;;;;6.40;5.47;;;;;;;;;;5073273;28;20654;-78
2022/09/14 05:48:13;;;;;;;6.40;5.80;;;;;;;;;;5074236;28;20169;-79
2022/09/14 05:50:39;;;;;;;5.90;5.30;;;;;;;;;;5074202;28;20200;-78
2022/09/14 05:53:05;;;;;;;6.00;5.43;;;;;;;;;;5057418;28;20185;-78
2022/09/14 05:55:31;;;;;;;7.90;5.63;;;;;;;;;;5057448;28;20527;-80
2022/09/14 05:57:57;;;;;;;6.03;5.20;;;;;;;;;;5074071;28;20284;-80
2022/09/14 06:00:24;;;;;;;6.20;4.97;;;;;;;;;;5073132;28;20236;-78
2022/09/14 06:02:51;;;;;;;6.83;5.00;;;;;;;;;;5056086;28;20175;-78
2022/09/14 06:05:17;;;;;;;5.40;4.90;;;;;;;;;;5072544;28;20204;-78
2022/09/14 06:07:44;;;;;;;5.80;5.20;;;;;;;;;;5072237;28;20208;-77
2022/09/14 06:10:10;;;;;;;5.27;4.77;;;;;;;;;;5072170;28;20671;-78
2022/09/14 06:12:36;;;;;;;3.20;2.90;;;;;;;;;;5055569;28;20185;-77
2022/09/14 06:15:02;;;;;;;5.17;4.67;;;;;;;;;;5056112;28;20289;-78
2022/09/14 06:17:29;;;;;;;5.47;4.97;;;;;;;;;;5055753;28;20204;-77
2022/09/14 06:19:55;;;;;;;5.30;4.80;;;;;;;;;;5071661;28;20189;-77
2022/09/14 06:22:31;;;;;;;5.93;4.73;;;;;;;;;;5071470;28;20192;-77
2022/09/14 06:24:57;;;;;;;5.57;4.93;;;;;;;;;;5054817;28;20180;-78
2022/09/14 06:27:24;;;;;;;5.23;4.73;;;;;;;;;;5071498;28;20259;-77
2022/09/14 06:29:52;;;;;;;5.80;5.20;;;;;;;;;;5062350;28;20395;-77
2022/09/14 06:32:18;;;;;;;5.47;4.97;;;;;;;;;;5055538;28;20643;-77
2022/09/14 06:34:44;;;;;;;7.97;5.27;;;;;;;;;;5055511;28;20181;-78
2022/09/14 06:37:11;;;;;;;6.60;5.37;;;;;;;;;;5055444;28;20209;-78
2022/09/14 06:39:37;;;;;;;5.80;5.20;;;;;;;;;;5054824;28;20181;-78
2022/09/14 06:42:03;;;;;;;6.97;6.17;;;;;;;;;;5055360;28;20516;-77
2022/09/14 06:44:29;;;;;;;7.23;5.47;;;;;;;;;;5073221;28;20172;-76
2022/09/14 06:46:55;;;;;;;6.40;5.60;;;;;;;;;;5055004;28;20177;-77
2022/09/14 06:49:22;;;;;;;5.50;5.00;;;;;;;;;;5071391;28;20177;-77
2022/09/14 06:51:49;;;;;;;6.20;5.57;;;;;;;;;;5055406;28;20204;-77
2022/09/14 06:54:15;;;;;;;5.93;5.33;;;;;;;;;;5071785;28;20173;-77
2022/09/14 06:56:42;;;;;;;5.90;5.30;;;;;;;;;;5046683;28;20188;-76
2022/09/14 06:59:09;;;;;;;6.20;5.37;;;;;;;;;;5042437;28;20694;-77
2022/09/14 07:01:36;;;;;;;5.53;5.03;;;;;;;;;;5052795;28;20209;-78
2022/09/14 07:04:02;;;;;;;5.83;5.27;;;;;;;;;;5055181;28;20181;-77
2022/09/14 07:06:31;;;;;;;6.10;5.50;;;;;;;;;;5061653;28;20588;-77
2022/09/14 07:08:57;;;;;;;6.07;5.47;;;;;;;;;;5065011;28;20556;-77
2022/09/14 07:11:28;;;;;;;7.17;5.60;;;;;;;;;;5065804;28;20698;-78
2022/09/14 07:13:57;;;;;;;6.20;5.60;;;;;;;;;;5071964;28;20195;-78
2022/09/14 07:16:23;;;;;;;6.50;5.90;;;;;;;;;;5071319;28;20183;-77
2022/09/14 07:18:52;;;;;;;5.93;5.30;;;;;;;;;;5055109;28;20212;-78
2022/09/14 07:21:20;;;;;;;6.50;5.80;;;;;;;;;;5071053;28;20275;-77
2022/09/14 07:23:46;;;;;;;5.37;4.87;;;;;;;;;;5071472;28;20586;-78
2022/09/14 07:26:14;;;;;;;5.20;4.60;;;;;;;;;;5071574;28;20315;-77
2022/09/14 07:28:40;;;;;;;5.07;4.67;;;;;;;;;;5065421;28;20554;-78
2022/09/14 07:31:14;;;;;;;5.33;4.83;;;;;;;;;;5070980;28;20663;-77
2022/09/14 07:33:40;;;;;;;5.10;4.40;;;;;;;;;;5071282;28;20184;-77
2022/09/14 07:36:06;;;;;;;4.70;4.30;;;;;;;;;;5058180;28;20177;-77
2022/09/14 07:38:33;;;;;;;4.93;4.30;;;;;;;;;;5058652;28;20208;-77
2022/09/14 07:40:59;;;;;;;5.03;4.20;;;;;;;;;;5074852;28;20192;-77
2022/09/14 07:43:25;;;;;;;4.37;3.93;;;;;;;;;;5075235;28;20180;-77
2022/09/14 07:45:51;;;;;;;4.20;3.80;;;;;;;;;;5058693;28;20181;-77
2022/09/14 07:48:17;;;;;;;4.10;3.70;;;;;;;;;;5075225;28;20184;-77
2022/09/14 07:50:43;;;;;;;4.83;3.87;;;;;;;;;;5074598;28;20201;-77
2022/09/14 07:53:09;;;;;;;4.27;3.87;;;;;;;;;;5058205;28;20224;-77
2022/09/14 07:55:38;;;;;;;4.27;3.87;;;;;;;;;;5074852;28;20201;-77
2022/09/14 07:58:04;;;;;;;4.53;3.93;;;;;;;;;;5074672;28;20203;-77
2022/09/14 08:00:30;;;;;;;4.17;3.77;;;;;;;;;;5074573;28;20588;-77
2022/09/14 08:02:57;;;;;;;3.43;3.13;;;;;;;;;;5075045;28;20173;-77
2022/09/14 08:05:24;;;;;;;3.17;2.83;;;;;;;;;;5058156;28;20185;-77
2022/09/14 08:07:54;;;;;;;2.63;2.43;;;;;;;;;;5074737;28;20200;-77
2022/09/14 08:10:20;;;;;;;3.23;2.93;;;;;;;;;;5057823;28;20588;-77
2022/09/14 08:12:49;;;;;;;3.20;2.90;;;;;;;;;;5074667;28;20187;-77
2022/09/14 08:15:15;;;;;;;3.47;3.07;;;;;;;;;;5075602;28;20184;-77
2022/09/14 08:17:41;;;;;;;3.83;2.90;;;;;;;;;;5057917;28;20205;-77
2022/09/14 08:20:08;;;;;;;3.30;3.00;;;;;;;;;;5074620;28;20205;-78
2022/09/14 08:22:34;;;;;;;3.03;2.70;;;;;;;;;;5058217;28;20177;-78
2022/09/14 08:25:00;;;;;;;3.30;2.70;;;;;;;;;;5074579;28;20188;-77
2022/09/14 08:27:26;;;;;;;3.27;2.73;;;;;;;;;;5074145;28;20540;-77
2022/09/14 08:29:52;;;;;;;2.90;2.67;;;;;;;;;;5057417;28;20201;-77
2022/09/14 08:32:18;;;;;;;4.43;2.50;;;;;;;;;;5057397;28;20188;-77
2022/09/14 08:34:43;;;;;;;2.53;2.13;;;;;;;;;;5073998;28;20621;-77
2022/09/14 08:37:10;;;;;;;2.70;2.50;;;;;;;;;;5057507;28;20262;-77
2022/09/14 08:39:36;;;;;;;2.23;1.87;;;;;;;;;;5057244;28;20177;-78
2022/09/14 08:42:04;;;;;;;3.47;2.43;;;;;;;;;;5073901;28;20276;-78
2022/09/14 08:44:30;;;;;;;2.60;2.40;;;;;;;;;;5057488;28;20182;-77
2022/09/14 08:46:56;;;;;;;2.60;2.40;;;;;;;;;;5074064;28;20165;-77
2022/09/14 08:49:26;;;;;;;2.93;2.70;;;;;;;;;;5073776;28;20187;-77
2022/09/14 08:51:52;;;;;;;3.60;2.50;;;;;;;;;;5073956;28;20184;-78
2022/09/14 08:54:18;;;;;;;2.67;2.33;;;;;;;;;;5073806;28;20184;-78
2022/09/14 08:56:46;;;;;;;2.63;2.40;;;;;;;;;;5057500;28;20177;-78
2022/09/14 08:59:27;;;;;;;2.57;2.37;;;;;;;;;;5056815;28;20187;-78
2022/09/14 09:02:19;;;;;;;3.80;2.67;;;;;;;;;;5075068;28;20193;-77
2022/09/14 09:04:51;;;;;;;5.03;2.50;;;;;;;;;;5081024;28;20180;-77
2022/09/14 09:07:20;;;;;;;2.40;2.20;;;;;;;;;;5093979;28;20173;-77
2022/09/14 09:09:48;;;;;;;3.17;2.70;;;;;;;;;;5093879;28;20199;-78
2022/09/14 09:12:18;;;;;;;3.20;2.40;;;;;;;;;;5093809;28;20268;-77
2022/09/14 09:14:53;;;;;;;3.27;2.70;;;;;;;;;;5078565;28;20211;-77
2022/09/14 09:17:30;;;;;;;3.23;2.53;;;;;;;;;;5053522;28;20667;-77
2022/09/14 09:20:14;;;;;;;3.23;2.50;;;;;;;;;;5054254;28;20193;-78
2022/09/14 09:22:49;;;;;;;484.00;122.10;;;;;;;;;;5053248;28;20235;-77
2022/09/14 09:25:29;;;;;;;528.10;142.27;;;;;;;;;;5053456;28;20264;-78
2022/09/14 09:28:05;;;;;;;4.47;3.43;;;;;;;;;;5054586;28;20189;-78
2022/09/14 09:30:31;;;;;;;18.83;6.73;;;;;;;;;;5053116;28;20680;-78
2022/09/14 09:32:58;;;;;;;59.13;19.40;;;;;;;;;;5036334;28;20186;-77
2022/09/14 09:35:24;;;;;;;4.50;2.90;;;;;;;;;;5053063;28;20181;-77
2022/09/14 09:37:50;;;;;;;28.57;10.43;;;;;;;;;;5069828;28;20237;-78
2022/09/14 09:40:18;;;;;;;66.00;21.90;;;;;;;;;;5053887;28;20190;-76
2022/09/14 09:43:03;;;;;;;19.90;8.10;;;;;;;;;;5069689;28;20180;-77
2022/09/14 09:45:46;;;;;;;23.97;11.67;;;;;;;;;;5069680;28;20177;-77
2022/09/14 09:48:13;;;;;;;14.17;7.27;;;;;;;;;;5054185;28;20166;-77
2022/09/14 09:50:47;;;;;;;25.95;11.55;;;;;;;;;;5036113;28;20209;-76
2022/09/14 09:53:16;;;;;;;4.00;2.90;;;;;;;;;;5061617;28;20182;-76
2022/09/14 09:55:47;;;;;;;4.83;2.90;;;;;;;;;;5052774;28;20177;-76
2022/09/14 09:58:21;;;;;;;9.87;6.03;;;;;;;;;;5054570;28;20193;-76
2022/09/14 10:00:58;;;;;;;20.90;10.40;;;;;;;;;;5055639;28;20212;-76
2022/09/14 10:03:28;;;;;;;11.30;6.47;;;;;;;;;;5055665;28;20183;-76
2022/09/14 10:06:06;;;;;;;6.90;4.00;;;;;;;;;;5072231;28;20177;-77
2022/09/14 10:08:33;;;;;;;3.10;2.30;;;;;;;;;;5073458;28;20172;-76
2022/09/14 10:11:01;;;;;;;2.45;2.10;;;;;;;;;;5072255;28;20350;-76
2022/09/14 10:13:29;;;;;;;4.47;2.22;;;;;;;;;;5073349;28;20248;-76
2022/09/14 10:16:05;;;;;;;2.47;2.28;;;;;;;;;;5073483;28;20188;-78
2022/09/14 10:18:32;;;;;;;3.47;2.60;;;;;;;;;;5073259;28;20283;-77
2022/09/14 10:20:58;;;;;;;3.90;2.40;;;;;;;;;;5071928;28;20193;-78
2022/09/14 10:23:26;;;;;;;3.13;2.37;;;;;;;;;;5072521;28;20577;-78
2022/09/14 10:25:53;;;;;;;3.27;2.50;;;;;;;;;;5072279;28;20172;-78
2022/09/14 10:28:25;;;;;;;2.47;1.90;;;;;;;;;;5055623;28;20207;-78
2022/09/14 10:30:56;;;;;;;4.72;2.85;;;;;;;;;;5072267;28;20248;-78
2022/09/14 10:33:22;;;;;;;2.67;2.25;;;;;;;;;;5073105;28;20184;-78
2022/09/14 10:36:07;;;;;;;2.40;2.20;;;;;;;;;;5071144;28;20554;-78
2022/09/14 10:38:40;;;;;;;2.58;2.10;;;;;;;;;;5072002;28;20207;-79
2022/09/14 10:41:10;;;;;;;3.25;1.85;;;;;;;;;;5072284;28;20204;-79
2022/09/14 10:43:37;;;;;;;2.25;1.50;;;;;;;;;;5068547;28;20272;-80
2022/09/14 10:46:04;;;;;;;2.63;1.20;;;;;;;;;;5080084;28;20169;-79
2022/09/14 10:48:39;;;;;;;1.98;1.30;;;;;;;;;;5094506;28;20184;-79
2022/09/14 10:51:16;;;;;;;1.30;1.20;;;;;;;;;;5095694;28;20256;-79
2022/09/14 10:53:54;;;;;;;1.73;1.40;;;;;;;;;;5097258;28;20168;-79
2022/09/14 10:56:25;;;;;;;1.48;1.38;;;;;;;;;;5097726;28;20187;-79
2022/09/14 10:58:54;;;;;;;1.40;1.30;;;;;;;;;;5080581;28;20299;-79
2022/09/14 11:01:27;;;;;;;2.23;1.60;;;;;;;;;;5102493;22;20240;-79
2022/09/14 11:04:11;;;;;;;2.70;1.83;;;;;;;;;;5010688;28;20194;-79
2022/09/14 11:06:45;;;;;;;2.50;1.93;;;;;;;;;;4996996;28;20615;-79
2022/09/14 11:09:23;;;;;;;3.03;1.93;;;;;;;;;;5012090;28;20709;-79
2022/09/14 11:11:55;;;;;;;2.33;2.00;;;;;;;;;;5013050;28;20207;-79
2022/09/14 11:14:39;;;;;;;2.10;1.90;;;;;;;;;;4996929;28;20518;-79
2022/09/14 11:17:17;;;;;;;2.28;1.80;;;;;;;;;;4996516;28;20241;-80
2022/09/14 11:19:55;;;;;;;2.25;1.90;;;;;;;;;;5010039;28;20587;-79
2022/09/14 11:22:30;;;;;;;2.35;1.80;;;;;;;;;;5015242;28;20206;-79
2022/09/14 11:24:58;;;;;;;2.83;2.08;;;;;;;;;;5015509;28;20629;-79
2022/09/14 11:27:24;;;;;;;2.50;1.60;;;;;;;;;;5015318;28;20206;-79
2022/09/14 11:29:57;;;;;;;1.65;1.50;;;;;;;;;;5015694;28;20187;-79
2022/09/14 11:32:43;;;;;;;2.22;1.50;;;;;;;;;;5016511;28;20249;-79
2022/09/14 11:35:09;;;;;;;2.58;1.50;;;;;;;;;;5012664;28;20202;-79
2022/09/14 11:37:39;;;;;;;4.32;2.10;;;;;;;;;;5022088;28;20198;-80
2022/09/14 11:40:15;;;;;;;3.05;1.98;;;;;;;;;;5032915;28;20242;-79
2022/09/14 11:42:50;;;;;;;2.58;1.92;;;;;;;;;;5033359;28;20205;-79
2022/09/14 11:45:40;;;;;;;2.50;1.92;;;;;;;;;;5032744;28;20171;-79
2022/09/14 11:48:18;;;;;;;3.03;2.30;;;;;;;;;;5002173;28;20198;-80
2022/09/14 11:50:46;;;;;;;4.00;2.50;;;;;;;;;;5027990;28;20183;-79
2022/09/14 11:53:13;;;;;;;3.50;2.60;;;;;;;;;;5011023;28;20254;-81
2022/09/14 11:55:49;;;;;;;2.55;2.35;;;;;;;;;;4992839;28;20211;-81
2022/09/14 11:58:26;;;;;;;3.17;2.87;;;;;;;;;;4992767;28;20238;-81
2022/09/14 12:00:52;;;;;;;3.27;2.97;;;;;;;;;;4992797;28;20546;-83
2022/09/14 12:03:19;;;;;;;3.10;2.80;;;;;;;;;;4992259;28;20211;-79
2022/09/14 12:05:46;;;;;;;4.05;3.38;;;;;;;;;;4992012;28;20230;-81
2022/09/14 12:08:30;;;;;;;3.10;2.80;;;;;;;;;;4992876;28;20182;-79
2022/09/14 12:11:09;;;;;;;2.97;2.67;;;;;;;;;;4992434;28;20184;-79
2022/09/14 12:13:38;;;;;;;3.87;3.07;;;;;;;;;;4992462;28;20203;-81
2022/09/14 12:16:06;;;;;;;3.05;2.75;;;;;;;;;;4991909;28;20191;-82
2022/09/14 12:18:32;;;;;;;3.20;2.90;;;;;;;;;;4992047;28;20682;-79
2022/09/14 12:21:03;;;;;;;3.17;2.87;;;;;;;;;;4992272;28;20176;-81
2022/09/14 12:23:50;;;;;;;3.78;3.47;;;;;;;;;;4995444;28;20206;-80
2022/09/14 12:26:16;;;;;;;4.60;3.83;;;;;;;;;;4995633;28;20168;-81
2022/09/14 12:28:47;;;;;;;4.53;3.90;;;;;;;;;;4995360;28;20183;-81
2022/09/14 12:31:31;;;;;;;4.03;3.73;;;;;;;;;;4996335;28;20192;-78
2022/09/14 12:34:14;;;;;;;5.07;4.40;;;;;;;;;;4996083;28;20180;-80
2022/09/14 12:36:39;;;;;;;4.83;4.33;;;;;;;;;;4997122;28;20270;-80
2022/09/14 12:39:19;;;;;;;5.50;5.00;;;;;;;;;;4995778;28;20231;-81
2022/09/14 12:41:48;;;;;;;6.07;5.37;;;;;;;;;;4995607;28;20191;-80
2022/09/14 12:44:29;;;;;;;5.90;5.40;;;;;;;;;;4995437;28;20184;-80
2022/09/14 12:46:55;;;;;;;6.57;6.00;;;;;;;;;;4994914;28;20171;-79
2022/09/14 12:49:33;;;;;;;6.00;5.50;;;;;;;;;;4995061;28;20631;-79
2022/09/14 12:52:02;;;;;;;6.77;6.17;;;;;;;;;;4994367;28;20206;-76
2022/09/14 12:54:54;;;;;;;7.00;6.43;;;;;;;;;;4994670;28;20180;-76
2022/09/14 12:57:37;;;;;;;6.80;6.20;;;;;;;;;;4992014;28;20211;-75
2022/09/14 13:00:10;;;;;;;7.23;6.53;;;;;;;;;;4994208;28;20254;-75
2022/09/14 13:02:46;;;;;;;8.90;8.10;;;;;;;;;;4994272;28;20568;-75
2022/09/14 13:05:32;;;;;;;9.23;8.40;;;;;;;;;;4994196;28;20266;-75
2022/09/14 13:07:58;;;;;;;9.40;8.57;;;;;;;;;;4994318;28;20164;-75
2022/09/14 13:10:32;;;;;;;10.07;9.00;;;;;;;;;;4993963;28;20179;-75
2022/09/14 13:13:00;;;;;;;10.90;9.80;;;;;;;;;;4994073;28;20199;-75
2022/09/14 13:15:26;;;;;;;11.03;9.97;;;;;;;;;;4994220;28;20183;-75
2022/09/14 13:18:00;;;;;;;12.23;11.03;;;;;;;;;;4993981;28;20199;-75
2022/09/14 13:20:26;;;;;;;13.30;11.70;;;;;;;;;;4977638;28;20648;-75
2022/09/14 13:22:52;;;;;;;13.23;11.83;;;;;;;;;;4994989;28;20602;-75
2022/09/14 13:25:45;;;;;;;13.67;12.27;;;;;;;;;;4994179;28;20186;-76
2022/09/14 13:28:14;;;;;;;13.30;11.93;;;;;;;;;;4992334;28;20187;-76
2022/09/14 13:30:40;;;;;;;14.77;13.30;;;;;;;;;;4993547;28;20689;-75
2022/09/14 13:33:07;;;;;;;14.13;12.70;;;;;;;;;;4994202;28;20227;-79
2022/09/14 13:35:35;;;;;;;14.57;13.07;;;;;;;;;;4979547;28;20631;-79
2022/09/14 13:38:07;;;;;;;14.40;12.97;;;;;;;;;;4979221;28;20238;-79
2022/09/14 13:40:33;;;;;;;13.63;12.33;;;;;;;;;;4995372;28;20179;-79
2022/09/14 13:43:00;;;;;;;15.47;13.90;;;;;;;;;;4978948;28;20200;-79
2022/09/14 13:45:26;;;;;;;15.63;14.03;;;;;;;;;;4978911;28;20183;-79
2022/09/14 13:47:53;;;;;;;15.50;13.90;;;;;;;;;;4995404;28;20622;-80
2022/09/14 13:50:19;;;;;;;15.33;13.73;;;;;;;;;;4995016;28;20183;-79
2022/09/14 13:52:45;;;;;;;14.27;12.77;;;;;;;;;;4979697;28;20210;-79
2022/09/14 13:55:11;;;;;;;15.27;13.77;;;;;;;;;;4979674;28;20195;-79
2022/09/14 13:57:39;;;;;;;14.40;13.00;;;;;;;;;;4995556;28;20208;-79
2022/09/14 14:00:17;;;;;;;16.07;14.27;;;;;;;;;;4982340;28;20538;-79
2022/09/14 14:02:45;;;;;;;16.77;14.70;;;;;;;;;;4997307;28;20295;-79
2022/09/14 14:05:22;;;;;;;20.60;14.77;;;;;;;;;;4979490;28;20187;-79
2022/09/14 14:07:48;;;;;;;16.60;14.63;;;;;;;;;;4995205;28;20180;-79
2022/09/14 14:10:21;;;;;;;18.10;14.93;;;;;;;;;;4979298;28;20238;-79
2022/09/14 14:12:47;;;;;;;18.00;14.43;;;;;;;;;;4995660;28;20199;-79
2022/09/14 14:15:13;;;;;;;18.67;15.87;;;;;;;;;;4979453;28;20317;-79
2022/09/14 14:17:40;;;;;;;16.97;14.73;;;;;;;;;;4996088;28;20199;-79
2022/09/14 14:20:25;;;;;;;16.83;14.23;;;;;;;;;;4995471;28;20266;-79
2022/09/14 14:23:09;;;;;;;18.67;14.40;;;;;;;;;;4996808;28;20187;-79
2022/09/14 14:25:38;;;;;;;18.50;14.30;;;;;;;;;;4995571;28;20207;-79
2022/09/14 14:28:06;;;;;;;16.90;14.97;;;;;;;;;;4996206;28;20175;-79
2022/09/14 14:30:36;;;;;;;18.73;14.87;;;;;;;;;;4995456;28;20184;-79
2022/09/14 14:33:05;;;;;;;18.43;14.67;;;;;;;;;;4995838;28;20195;-79
2022/09/14 14:35:31;;;;;;;18.77;15.47;;;;;;;;;;4995465;28;20179;-79
2022/09/14 14:37:58;;;;;;;18.50;15.00;;;;;;;;;;4980200;28;20199;-79
2022/09/14 14:40:26;;;;;;;16.80;14.30;;;;;;;;;;4996924;28;20172;-79
2022/09/14 14:42:52;;;;;;;17.20;14.43;;;;;;;;;;4996134;28;20202;-79
2022/09/14 14:45:20;;;;;;;16.33;14.63;;;;;;;;;;4994975;28;20182;-79
2022/09/14 14:47:47;;;;;;;15.83;13.73;;;;;;;;;;4998015;28;20175;-79
2022/09/14 14:50:18;;;;;;;14.47;12.97;;;;;;;;;;4979833;28;20211;-79
2022/09/14 14:52:44;;;;;;;15.80;14.07;;;;;;;;;;4979400;28;20211;-79
2022/09/14 14:55:10;;;;;;;15.77;14.07;;;;;;;;;;4979182;28;20180;-79
2022/09/14 14:57:37;;;;;;;16.20;14.53;;;;;;;;;;4995386;28;20199;-79
2022/09/14 15:00:05;;;;;;;16.83;15.00;;;;;;;;;;4995883;28;20255;-79